PABI/DJN METAR and TAF weather

Enter ICAO airport designator
Station Type Date Time Source
PABI METAR 2022/06/30 12:53 UTC NOAA

PABI 301253Z AUTO 13003KT 4SM HZ CLR 11/07 A3015 RMK AO2 SLP208 T01060072 TSNO


Station Type Date Time Source
PABI Decoded METAR 2022/06/30 12:53 UTC NOAA

ALLEN ARMY AIRFIELD, AK, United States (PABI) 64-00N 145-43W 391M
Jun 30, 2022 - 08:53 AM EDT / 2022.06.30 1253 UTC
Wind: from the SE (130 degrees) at 3 MPH (3 KT):0
Visibility: 4 mile(s):0
Sky conditions: clear
Weather: haze
Temperature: 51.1 F (10.6 C)
Dew Point: 45.0 F (7.2 C)
Relative Humidity: 79%
Pressure (altimeter): 30.15 in. Hg (1020 hPa)
ob: PABI 301253Z AUTO 13003KT 4SM HZ CLR 11/07 A3015 RMK AO2 SLP208 T01060072 TSNO
cycle: 13

Station Type Date Time Source
PABI TAF 2022/06/29 22:12 UTC NOAA

TAF PABI 292200Z 2922/0104 VRB06KT 8000 HZ SCT060 510062 QNH3004INS
BECMG 3006/3007 VRB06KT 9999 NSW SCT060 QNH3010INS TX23/3022Z TN14/3013Z

Example: see airport list